Flight Track Log - Related Links

Times and Time Zones

All times are in EDT time to prevent confusion due to time zone crossing. See the ASQ4209 flight status page for this flight to view local times or setup timezone preferences in your user account.

Time Position Orientation Groundspeed Altitude Reporting Facility
EDT Latitude Longitude Course Direction KTS MPH feet Rate Location/Type
Sun 07:08:39 AM 39.9067 -84.1936 74° East 171 197 1,600  Level Indianapolis Center
Sun 07:09:09 AM 39.9172 -84.1678 62° Northeast 169 194 2,600 2,032 Climbing Indianapolis Center
Sun 07:09:41 AM 39.9308 -84.1314 64° Northeast 191 220 3,700 2,262 Climbing Indianapolis Center
Sun 07:10:10 AM 39.9422 -84.0894 70° East 259 298 4,900 2,700 Climbing Indianapolis Center
Sun 07:10:41 AM 39.9503 -84.0419 78° East 249 287 6,400 2,935 Climbing Indianapolis Center
Sun 07:11:00 AM 39.9625 -83.7586 83° East  Level FlightAware Approximate
Sun 07:11:42 AM 39.9639 -83.9425 80° East 272 313 9,400  Level Indianapolis Center
Sun 07:12:00 AM 39.9840 -83.6046 79° East  Level FlightAware Approximate
Sun 07:12:42 AM 40.0094 -83.8567 55° Northeast 292 336 11,800  Level Indianapolis Center
Sun 07:13:00 AM 40.0107 -83.4520 74° East  Level FlightAware Approximate
Sun 07:13:43 AM 40.0706 -83.7689 48° Northeast 319 367 13,500  Level Indianapolis Center
Sun 07:14:43 AM 40.1261 -83.6897 47° Northeast 344 396 14,900 744 Climbing Indianapolis Center
Sun 07:15:44 AM 40.1994 -83.5856 47° Northeast 381 438 15,000 50 Climbing Indianapolis Center
Sun 07:16:44 AM 40.2708 -83.4811 48° Northeast 381 438 15,000  Level Indianapolis Center
Sun 07:17:45 AM 40.3444 -83.3736 48° Northeast 391 450 15,000  Level Indianapolis Center
Sun 07:18:46 AM 40.4197 -83.2653 48° Northeast 397 457 15,000  Level Indianapolis Center
Sun 07:19:46 AM 40.4917 -83.1594 48° Northeast 388 447 15,000  Level Indianapolis Center
Sun 07:20:47 AM 40.5711 -83.0439 48° Northeast 383 441 15,000 -492 Level Indianapolis Center
Sun 07:21:48 AM 40.6425 -82.9392 48° Northeast 381 438 14,000 -1,190 Descending Indianapolis Center
Sun 07:22:48 AM 40.7097 -82.8372 49° Northeast 368 423 12,600 -1,438 Descending Indianapolis Center
Sun 07:23:49 AM 40.7753 -82.7414 48° Northeast 353 406 11,100 -1,289 Descending Indianapolis Center
Sun 07:24:49 AM 40.8372 -82.6478 49° Northeast 340 391 10,000 -667 Descending Indianapolis Center
Sun 07:25:28 AM 40.8769 -82.5906 47° Northeast 341 392 10,000  Level Cleveland Center
Sun 07:26:27 AM 40.9369 -82.5017 48° Northeast 340 391 10,000  Level Cleveland Center
Sun 07:27:23 AM 41.0153 -82.4269 36° Northeast 334 384 10,000  Level Cleveland Center
Sun 07:28:24 AM 41.0914 -82.3711 29° Northeast 305 351 10,000 -496 Level Cleveland Center
Sun 07:29:24 AM 41.1342 -82.2842 57° Northeast 262 302 9,000 -1,140 Descending Cleveland Center
Sun 07:30:25 AM 41.1833 -82.2136 47° Northeast 266 306 7,700 -1,240 Descending Cleveland Center
Sun 07:31:25 AM 41.2258 -82.1458 50° Northeast 217 250 6,500 -1,438 Descending Cleveland Center
Sun 07:32:26 AM 41.2686 -82.0778 50° Northeast 224 258 4,800 -1,672 Descending Cleveland Center

Login

Don't have an account? Register now (free) for customized features, flight alerts, and more!